Time;durP1;ratioP1;P1;durP2;ratioP2;P2;SDS_P1;SDS_P2;PMS_P1;PMS_P2;Temp;Humidity;BMP_temperature;BMP_pressure;BME280_temperature;BME280_humidity;BME280_pressure;Samples;Min_cycle;Max_cycle;Signal;HPM_P1;HPM_P2
2023/08/04 00:01:36;;;;;;;0.88;0.38;;;17.80;99.90;;;;;;4976903;28;20048;-79
2023/08/04 00:04:01;;;;;;;3.15;0.75;;;17.80;99.90;;;;;;4993125;28;20027;-79
2023/08/04 00:06:27;;;;;;;1.00;0.38;;;17.90;99.90;;;;;;4976996;28;20455;-81
2023/08/04 00:08:52;;;;;;;1.35;0.47;;;17.90;99.90;;;;;;4993970;28;20053;-79
2023/08/04 00:11:18;;;;;;;1.27;0.32;;;17.90;99.90;;;;;;4976969;28;20037;-79
2023/08/04 00:13:44;;;;;;;3.20;0.30;;;17.80;99.90;;;;;;4995968;28;20037;-82
2023/08/04 00:16:10;;;;;;;3.92;0.50;;;17.90;99.90;;;;;;4980510;28;20038;-79
2023/08/04 00:18:36;;;;;;;0.57;0.30;;;17.80;99.90;;;;;;4997816;28;20036;-82
2023/08/04 00:21:03;;;;;;;1.38;0.40;;;17.80;99.90;;;;;;4997287;28;20506;-80
2023/08/04 00:23:29;;;;;;;2.15;0.35;;;17.90;99.90;;;;;;4997261;28;20348;-80
2023/08/04 00:25:54;;;;;;;1.50;0.43;;;17.80;99.90;;;;;;4996884;28;20026;-80
2023/08/04 00:28:22;;;;;;;3.13;0.47;;;17.80;99.90;;;;;;4980103;28;20034;-79
2023/08/04 00:30:48;;;;;;;3.22;0.47;;;17.90;99.90;;;;;;4995835;28;20034;-80
2023/08/04 00:33:13;;;;;;;1.40;0.30;;;17.90;99.90;;;;;;4997148;28;20386;-80
2023/08/04 00:35:39;;;;;;;0.95;0.17;;;17.80;99.90;;;;;;4997330;28;20105;-80
2023/08/04 00:38:04;;;;;;;2.80;0.50;;;17.80;99.90;;;;;;4979700;28;20019;-80
2023/08/04 00:40:30;;;;;;;2.22;0.40;;;17.80;99.90;;;;;;4979904;28;20027;-80
2023/08/04 00:42:55;;;;;;;1.00;0.40;;;17.80;99.90;;;;;;4995554;28;20054;-81
2023/08/04 00:45:24;;;;;;;1.10;0.30;;;17.80;99.90;;;;;;4997495;28;20498;-81
2023/08/04 00:47:54;;;;;;;2.35;0.50;;;17.90;99.90;;;;;;4995735;28;20054;-82
2023/08/04 00:50:20;;;;;;;0.60;0.30;;;17.80;99.90;;;;;;4996139;28;20064;-82
2023/08/04 00:52:48;;;;;;;1.02;0.38;;;17.80;99.90;;;;;;4996634;28;20028;-84
2023/08/04 00:55:14;;;;;;;1.50;0.50;;;17.80;99.90;;;;;;4996039;28;20422;-81
2023/08/04 00:57:40;;;;;;;1.75;0.40;;;17.80;99.90;;;;;;4996864;28;20033;-81
2023/08/04 01:00:06;;;;;;;1.40;0.45;;;17.80;99.90;;;;;;4995396;28;20026;-81
2023/08/04 01:02:33;;;;;;;1.67;0.35;;;17.70;99.90;;;;;;4995726;28;20027;-81
2023/08/04 01:05:01;;;;;;;1.08;0.32;;;17.70;99.90;;;;;;4995364;28;20037;-81
2023/08/04 01:07:30;;;;;;;3.38;0.32;;;17.70;99.90;;;;;;4995719;28;20077;-80
2023/08/04 01:10:05;;;;;;;2.45;0.40;;;17.70;99.90;;;;;;4995453;28;20030;-81
2023/08/04 01:12:49;;;;;;;1.90;0.47;;;17.60;99.90;;;;;;4979002;28;20041;-81
2023/08/04 01:15:17;;;;;;;4.00;0.43;;;17.60;99.90;;;;;;4979465;28;20041;-81
2023/08/04 01:17:42;;;;;;;3.60;0.40;;;17.60;99.90;;;;;;4995902;28;20026;-80
2023/08/04 01:20:09;;;;;;;3.50;0.47;;;17.50;99.90;;;;;;4995840;28;20757;-80
2023/08/04 01:22:34;;;;;;;1.73;0.45;;;17.50;99.90;;;;;;4995176;28;20062;-80
2023/08/04 01:25:01;;;;;;;4.30;0.75;;;17.40;99.90;;;;;;4995585;28;20054;-80
2023/08/04 01:27:37;;;;;;;1.83;0.50;;;17.40;99.90;;;;;;4979204;28;20518;-80
2023/08/04 01:30:07;;;;;;;1.65;0.40;;;17.40;99.90;;;;;;4995756;28;20077;-80
2023/08/04 01:32:33;;;;;;;1.63;0.45;;;17.40;99.90;;;;;;4996303;28;20033;-79
2023/08/04 01:34:58;;;;;;;4.18;0.75;;;17.40;99.90;;;;;;4995544;28;20034;-79
2023/08/04 01:37:24;;;;;;;2.53;0.63;;;17.40;99.90;;;;;;4978931;28;20442;-78
2023/08/04 01:39:50;;;;;;;1.48;0.43;;;17.40;99.90;;;;;;4994792;28;20117;-80
2023/08/04 01:42:15;;;;;;;2.75;0.50;;;17.40;99.90;;;;;;4995615;28;20121;-78
2023/08/04 01:44:41;;;;;;;1.30;0.50;;;17.40;99.90;;;;;;4995491;28;20054;-78
2023/08/04 01:47:07;;;;;;;1.23;0.40;;;17.50;99.90;;;;;;4995728;28;20034;-78
2023/08/04 01:49:34;;;;;;;1.25;0.40;;;17.50;99.90;;;;;;4994882;28;20033;-79
2023/08/04 01:52:00;;;;;;;1.98;0.60;;;17.50;99.90;;;;;;4994426;28;20030;-79
2023/08/04 01:54:25;;;;;;;3.72;0.60;;;17.50;99.90;;;;;;4994923;28;20027;-78
2023/08/04 01:56:51;;;;;;;3.17;0.95;;;17.50;99.90;;;;;;4978346;28;20022;-80
2023/08/04 01:59:17;;;;;;;1.17;0.50;;;17.50;99.90;;;;;;4994698;28;20074;-79
2023/08/04 02:01:42;;;;;;;1.00;0.50;;;17.50;99.90;;;;;;4996089;28;20034;-79
2023/08/04 02:04:08;;;;;;;1.45;0.40;;;17.50;99.90;;;;;;4995197;28;20234;-79
2023/08/04 02:06:33;;;;;;;3.17;0.40;;;17.60;99.90;;;;;;4994942;28;20026;-78
2023/08/04 02:08:59;;;;;;;0.90;0.35;;;17.60;99.90;;;;;;4994873;28;20081;-80
2023/08/04 02:11:25;;;;;;;3.17;0.60;;;17.60;99.90;;;;;;4994496;28;20041;-79
2023/08/04 02:13:50;;;;;;;3.33;0.93;;;17.60;99.90;;;;;;4994096;28;20027;-83
2023/08/04 02:16:16;;;;;;;2.50;0.90;;;17.50;99.90;;;;;;4995291;28;20478;-80
2023/08/04 02:18:41;;;;;;;2.08;0.40;;;17.50;99.90;;;;;;4977954;28;20022;-80
2023/08/04 02:21:07;;;;;;;2.17;0.50;;;17.50;99.90;;;;;;4994856;28;20026;-81
2023/08/04 02:23:33;;;;;;;1.00;0.57;;;17.50;99.90;;;;;;4994197;28;20060;-79
2023/08/04 02:25:58;;;;;;;1.60;0.32;;;17.50;99.90;;;;;;4993998;28;20022;-79
2023/08/04 02:28:24;;;;;;;0.85;0.45;;;17.40;99.90;;;;;;4995194;28;20357;-78
2023/08/04 02:30:49;;;;;;;3.33;0.55;;;17.50;99.90;;;;;;4977730;28;20037;-81
2023/08/04 02:33:15;;;;;;;1.98;0.70;;;17.40;99.90;;;;;;4994754;28;20031;-79
2023/08/04 02:35:40;;;;;;;1.38;0.68;;;17.50;99.90;;;;;;4994585;28;20391;-80
2023/08/04 02:38:06;;;;;;;0.98;0.45;;;17.40;99.90;;;;;;4993247;28;20121;-79
2023/08/04 02:40:36;;;;;;;2.88;0.60;;;17.40;99.90;;;;;;4994360;28;20380;-78
2023/08/04 02:43:02;;;;;;;1.92;0.55;;;17.40;99.90;;;;;;4993099;28;20957;-80
2023/08/04 02:45:28;;;;;;;2.90;0.57;;;17.40;99.90;;;;;;4994443;28;20125;-80
2023/08/04 02:47:54;;;;;;;1.70;0.40;;;17.40;99.90;;;;;;4993420;28;20030;-81
2023/08/04 02:50:19;;;;;;;1.95;0.38;;;17.40;99.90;;;;;;4978067;28;20066;-79
2023/08/04 02:52:45;;;;;;;2.42;0.40;;;17.40;99.90;;;;;;4994433;28;20037;-79
2023/08/04 02:55:11;;;;;;;1.42;0.30;;;17.40;99.90;;;;;;4994029;28;20037;-79
2023/08/04 02:57:37;;;;;;;1.05;0.40;;;17.40;99.90;;;;;;4977316;28;20037;-80
2023/08/04 03:00:04;;;;;;;1.95;0.57;;;17.40;99.90;;;;;;4993249;28;20034;-79
2023/08/04 03:02:29;;;;;;;1.23;0.40;;;17.40;99.90;;;;;;4977623;28;20033;-79
2023/08/04 03:04:55;;;;;;;3.13;0.57;;;17.30;99.90;;;;;;4977578;28;20027;-82
2023/08/04 03:07:21;;;;;;;2.13;0.40;;;17.40;99.90;;;;;;4993785;28;20463;-79
2023/08/04 03:09:47;;;;;;;2.17;0.60;;;17.30;99.90;;;;;;4994780;28;20030;-79
2023/08/04 03:12:12;;;;;;;2.90;0.70;;;17.30;99.90;;;;;;4976856;28;20034;-78
2023/08/04 03:14:38;;;;;;;1.40;0.60;;;17.30;99.90;;;;;;4994376;28;20542;-78
2023/08/04 03:17:04;;;;;;;0.88;0.50;;;17.30;99.90;;;;;;4993028;28;20030;-79
2023/08/04 03:19:29;;;;;;;1.73;0.40;;;17.30;99.90;;;;;;4993671;28;20027;-79
2023/08/04 03:21:55;;;;;;;1.85;0.73;;;17.30;99.90;;;;;;4993168;28;20057;-82
2023/08/04 03:24:20;;;;;;;2.58;0.52;;;17.30;99.90;;;;;;4994390;28;20026;-79
2023/08/04 03:26:46;;;;;;;1.92;0.55;;;17.30;99.90;;;;;;4994465;28;20076;-79
2023/08/04 03:29:12;;;;;;;3.15;0.47;;;17.20;99.90;;;;;;4993851;28;20122;-79
2023/08/04 03:31:38;;;;;;;1.73;0.40;;;17.10;99.90;;;;;;4994403;28;20117;-79
2023/08/04 03:34:03;;;;;;;2.20;0.60;;;17.10;99.90;;;;;;4976855;28;20069;-81
2023/08/04 03:36:30;;;;;;;4.03;0.80;;;17.10;99.90;;;;;;4977358;28;20122;-80
2023/08/04 03:38:56;;;;;;;3.70;0.65;;;17.10;99.90;;;;;;4994454;28;20034;-83
2023/08/04 03:41:22;;;;;;;2.05;0.60;;;17.10;99.90;;;;;;4993560;28;20089;-80
2023/08/04 03:43:47;;;;;;;2.38;0.50;;;17.10;99.90;;;;;;4994418;28;20395;-79
2023/08/04 03:46:13;;;;;;;1.33;0.40;;;17.10;99.90;;;;;;4994126;28;20526;-80
2023/08/04 03:48:38;;;;;;;3.60;0.70;;;17.10;99.90;;;;;;4998124;28;20485;-80
2023/08/04 03:51:04;;;;;;;1.80;0.55;;;17.10;99.90;;;;;;4983644;28;20033;-80
2023/08/04 03:53:29;;;;;;;2.47;0.40;;;17.00;99.90;;;;;;4986424;28;20168;-79
2023/08/04 03:55:55;;;;;;;2.05;0.40;;;17.10;99.90;;;;;;4990688;28;20030;-83
2023/08/04 03:58:20;;;;;;;3.42;0.50;;;17.10;99.90;;;;;;4980534;28;20062;-81
2023/08/04 04:00:46;;;;;;;1.13;0.50;;;17.10;99.90;;;;;;4979906;28;20113;-80
2023/08/04 04:03:12;;;;;;;1.70;0.52;;;17.10;99.90;;;;;;4979928;28;20027;-80
2023/08/04 04:05:38;;;;;;;4.05;0.70;;;17.10;99.90;;;;;;4995985;28;20022;-79
2023/08/04 04:08:04;;;;;;;1.10;0.40;;;17.10;99.90;;;;;;4979792;28;20030;-81
2023/08/04 04:10:29;;;;;;;1.83;0.45;;;17.10;99.90;;;;;;4997167;28;20105;-79
2023/08/04 04:12:55;;;;;;;2.85;0.60;;;17.00;99.90;;;;;;4995792;28;20062;-82
2023/08/04 04:15:20;;;;;;;2.75;0.63;;;17.10;99.90;;;;;;4988005;28;20027;-80
2023/08/04 04:17:47;;;;;;;2.40;0.60;;;17.10;99.90;;;;;;4960378;28;20085;-79
2023/08/04 04:20:13;;;;;;;1.83;0.70;;;17.00;99.90;;;;;;4961082;28;20030;-80
2023/08/04 04:22:38;;;;;;;1.83;0.50;;;17.00;99.90;;;;;;4976009;28;20109;-80
2023/08/04 04:25:04;;;;;;;2.92;0.75;;;17.00;99.90;;;;;;4982126;28;20035;-80
2023/08/04 04:27:30;;;;;;;1.88;0.50;;;17.00;99.90;;;;;;4979068;28;20058;-81
2023/08/04 04:29:56;;;;;;;2.80;0.50;;;17.00;99.90;;;;;;4995259;28;20072;-82
2023/08/04 04:32:21;;;;;;;1.25;0.60;;;17.00;99.90;;;;;;4967125;28;20080;-81
2023/08/04 04:34:47;;;;;;;2.67;0.60;;;17.10;99.90;;;;;;4962245;28;20085;-82
2023/08/04 04:37:13;;;;;;;5.97;0.50;;;17.00;99.90;;;;;;4975832;28;20142;-81
2023/08/04 04:39:38;;;;;;;3.30;0.70;;;17.00;99.90;;;;;;4976012;28;20047;-80
2023/08/04 04:42:05;;;;;;;1.60;0.52;;;17.00;99.90;;;;;;4975807;28;20518;-81
2023/08/04 04:44:30;;;;;;;2.28;0.80;;;17.00;99.90;;;;;;4976810;28;20393;-81
2023/08/04 04:46:56;;;;;;;3.53;0.55;;;17.00;99.90;;;;;;4976947;28;20046;-82
2023/08/04 04:49:22;;;;;;;2.15;0.38;;;17.00;99.90;;;;;;4977501;28;20075;-81
2023/08/04 04:51:47;;;;;;;1.42;0.38;;;17.00;99.90;;;;;;4983154;28;20038;-80
2023/08/04 04:54:13;;;;;;;2.63;0.50;;;17.00;99.90;;;;;;4990054;28;20472;-80
2023/08/04 04:56:39;;;;;;;0.93;0.40;;;17.00;99.90;;;;;;4990691;28;20030;-80
2023/08/04 04:59:04;;;;;;;0.88;0.40;;;17.00;99.90;;;;;;4958726;28;20035;-81
2023/08/04 05:01:30;;;;;;;0.70;0.40;;;17.00;99.90;;;;;;4959710;28;20049;-82
2023/08/04 05:03:56;;;;;;;4.38;0.35;;;17.00;99.90;;;;;;4959443;28;20490;-83
2023/08/04 05:06:21;;;;;;;1.17;0.73;;;17.00;99.90;;;;;;4978049;28;20030;-80
2023/08/04 05:08:47;;;;;;;3.10;0.40;;;16.90;99.90;;;;;;4959648;28;20035;-82
2023/08/04 05:11:12;;;;;;;1.27;0.38;;;16.90;99.90;;;;;;4959793;28;20391;-81
2023/08/04 05:13:41;;;;;;;1.65;0.47;;;16.90;99.90;;;;;;4959805;28;20049;-80
2023/08/04 05:16:07;;;;;;;1.77;0.50;;;16.90;99.90;;;;;;4970928;28;20065;-81
2023/08/04 05:18:33;;;;;;;1.30;0.40;;;17.00;99.90;;;;;;4981509;28;20026;-82
2023/08/04 05:20:58;;;;;;;2.13;0.60;;;17.00;99.90;;;;;;4986559;28;20085;-83
2023/08/04 05:23:24;;;;;;;2.13;0.45;;;17.10;99.90;;;;;;4994971;28;20027;-81
2023/08/04 05:25:50;;;;;;;1.60;0.30;;;17.00;99.90;;;;;;4987561;28;20034;-80
2023/08/04 05:28:21;;;;;;;2.28;0.43;;;17.00;99.90;;;;;;4976081;28;20023;-81
2023/08/04 05:30:47;;;;;;;1.40;0.40;;;17.00;99.90;;;;;;4975792;28;20121;-81
2023/08/04 05:33:13;;;;;;;3.58;0.60;;;17.00;99.90;;;;;;4990720;28;20027;-82
2023/08/04 05:35:38;;;;;;;1.83;0.65;;;17.00;99.90;;;;;;4981857;28;20037;-82
2023/08/04 05:38:04;;;;;;;1.17;0.60;;;17.00;99.90;;;;;;4994382;28;20054;-83
2023/08/04 05:40:32;;;;;;;2.75;0.63;;;16.90;99.90;;;;;;4994627;28;20113;-82
2023/08/04 05:42:59;;;;;;;0.90;0.40;;;16.90;99.90;;;;;;4994609;28;20133;-83
2023/08/04 05:45:24;;;;;;;1.55;0.25;;;17.00;99.90;;;;;;4991709;28;20026;-82
2023/08/04 05:47:50;;;;;;;1.95;0.50;;;17.00;99.90;;;;;;4985196;28;20057;-82
2023/08/04 05:50:15;;;;;;;1.13;0.50;;;17.00;99.90;;;;;;4993732;28;20854;-82
2023/08/04 05:52:41;;;;;;;2.25;0.35;;;17.00;99.90;;;;;;4977673;28;20157;-82
2023/08/04 05:55:07;;;;;;;0.80;0.32;;;17.00;99.90;;;;;;4994031;28;20028;-82
2023/08/04 05:57:32;;;;;;;1.92;0.50;;;17.00;99.90;;;;;;4988653;28;20452;-82
2023/08/04 05:59:58;;;;;;;3.70;0.50;;;17.00;99.90;;;;;;4958204;28;20034;-84
2023/08/04 06:02:23;;;;;;;2.65;0.70;;;17.00;99.90;;;;;;4983957;28;20106;-83
2023/08/04 06:04:49;;;;;;;2.80;0.38;;;17.10;99.90;;;;;;4995008;28;20030;-83
2023/08/04 06:07:15;;;;;;;3.72;0.90;;;17.00;99.90;;;;;;4994046;28;20124;-82
2023/08/04 06:09:41;;;;;;;2.28;0.55;;;17.10;99.90;;;;;;4993382;28;20030;-83
2023/08/04 06:12:08;;;;;;;0.32;0.32;;;17.10;99.90;;;;;;4977831;28;20113;-84
2023/08/04 06:14:34;;;;;;;1.75;0.57;;;17.20;99.90;;;;;;4974687;28;20031;-83
2023/08/04 06:16:59;;;;;;;1.48;0.43;;;17.10;99.90;;;;;;4976670;28;20182;-85
2023/08/04 06:19:25;;;;;;;1.77;0.43;;;17.10;99.90;;;;;;4990492;28;20082;-85
2023/08/04 06:21:50;;;;;;;1.38;0.57;;;17.20;99.90;;;;;;4978007;28;20387;-85
2023/08/04 06:24:28;;;;;;;2.35;0.50;;;17.20;99.90;;;;;;4977413;28;20053;-84
2023/08/04 06:26:54;;;;;;;1.45;0.60;;;17.20;99.90;;;;;;4978164;28;20455;-85
2023/08/04 06:29:19;;;;;;;3.53;0.38;;;17.20;99.90;;;;;;4977756;28;20041;-85
2023/08/04 06:31:45;;;;;;;4.85;0.57;;;17.20;99.90;;;;;;4994721;28;20435;-82
2023/08/04 06:34:11;;;;;;;1.02;0.40;;;17.20;99.90;;;;;;4994503;28;20026;-83
2023/08/04 06:36:36;;;;;;;4.40;0.50;;;17.20;99.90;;;;;;4994095;28;20121;-82
2023/08/04 06:39:03;;;;;;;1.77;0.43;;;17.30;99.90;;;;;;4977333;28;20026;-82
2023/08/04 06:41:29;;;;;;;0.65;0.47;;;17.40;99.90;;;;;;4993412;28;20471;-81
2023/08/04 06:43:54;;;;;;;1.00;0.38;;;17.50;99.90;;;;;;4976947;28;20081;-81
2023/08/04 06:46:20;;;;;;;4.65;0.40;;;17.60;99.90;;;;;;4992988;28;20337;-81
2023/08/04 06:48:45;;;;;;;1.10;0.40;;;17.60;99.90;;;;;;4980142;28;20160;-82
2023/08/04 06:51:11;;;;;;;0.50;0.30;;;17.70;99.90;;;;;;4986289;28;20030;-81
2023/08/04 06:53:36;;;;;;;0.52;0.30;;;17.60;99.90;;;;;;4992313;28;20375;-80
2023/08/04 06:56:02;;;;;;;0.68;0.40;;;17.70;99.90;;;;;;4992159;28;20500;-86
2023/08/04 06:58:28;;;;;;;2.30;0.38;;;17.70;99.90;;;;;;4992814;28;20034;-77
2023/08/04 07:00:54;;;;;;;2.90;0.40;;;17.70;99.90;;;;;;4991662;28;20130;-79
2023/08/04 07:03:19;;;;;;;2.20;0.50;;;17.70;99.90;;;;;;4992060;28;20081;-80
2023/08/04 07:05:45;;;;;;;1.25;0.50;;;17.70;99.90;;;;;;4988370;28;20472;-78
2023/08/04 07:08:10;;;;;;;2.78;0.52;;;17.60;99.90;;;;;;4957696;28;20027;-83
2023/08/04 07:10:36;;;;;;;2.67;0.55;;;17.60;99.90;;;;;;4969909;28;20460;-80
2023/08/04 07:13:02;;;;;;;2.03;1.25;;;17.50;99.90;;;;;;4991849;28;20439;-81
2023/08/04 07:15:27;;;;;;;1.95;0.70;;;17.50;99.90;;;;;;4993000;28;20066;-79
2023/08/04 07:17:53;;;;;;;0.88;0.70;;;17.50;99.90;;;;;;4976611;28;20158;-83
2023/08/04 07:20:21;;;;;;;0.75;0.40;;;17.50;99.90;;;;;;4975978;28;20050;-82
2023/08/04 07:22:46;;;;;;;0.50;0.43;;;17.60;99.90;;;;;;4996510;28;20097;-81
2023/08/04 07:25:12;;;;;;;1.85;0.77;;;17.60;99.90;;;;;;4979577;28;20030;-80
2023/08/04 07:27:37;;;;;;;4.70;1.42;;;17.60;99.90;;;;;;4980432;28;20026;-80
2023/08/04 07:30:04;;;;;;;0.88;0.40;;;17.70;99.90;;;;;;4980068;28;20057;-82
2023/08/04 07:32:29;;;;;;;0.82;0.30;;;17.80;99.90;;;;;;4980491;28;20038;-82
2023/08/04 07:34:55;;;;;;;2.83;0.57;;;17.80;99.90;;;;;;4996376;28;20097;-82
2023/08/04 07:37:20;;;;;;;1.10;0.30;;;17.90;99.90;;;;;;4965786;28;20030;-82
2023/08/04 07:39:46;;;;;;;3.03;0.38;;;17.80;99.90;;;;;;4980255;28;20125;-83
2023/08/04 07:42:12;;;;;;;1.58;0.60;;;17.80;99.90;;;;;;4979717;28;20022;-83
2023/08/04 07:44:37;;;;;;;4.25;1.30;;;17.70;99.90;;;;;;4982302;28;20042;-83
2023/08/04 07:47:03;;;;;;;1.52;0.80;;;17.80;99.90;;;;;;4960748;28;20073;-82
2023/08/04 07:49:28;;;;;;;2.58;0.98;;;17.80;99.90;;;;;;4960979;28;20034;-82
2023/08/04 07:51:54;;;;;;;1.52;0.70;;;17.90;99.90;;;;;;4987187;28;20117;-81
2023/08/04 07:54:21;;;;;;;3.25;2.10;;;18.00;99.90;;;;;;4984888;28;20027;-80
2023/08/04 07:56:46;;;;;;;1.80;0.70;;;18.10;99.90;;;;;;4984930;28;20034;-83
2023/08/04 07:59:12;;;;;;;3.72;1.00;;;18.10;99.90;;;;;;4992085;28;20037;-82
2023/08/04 08:01:38;;;;;;;1.83;0.60;;;18.20;99.90;;;;;;4967224;28;20053;-79
2023/08/04 08:04:03;;;;;;;1.67;0.68;;;18.20;99.90;;;;;;4984562;28;20034;-81
2023/08/04 08:06:29;;;;;;;3.00;0.70;;;18.20;99.90;;;;;;4974324;28;20026;-81
2023/08/04 08:08:54;;;;;;;0.93;0.57;;;18.30;99.90;;;;;;4994398;28;20030;-81
2023/08/04 08:11:20;;;;;;;2.60;0.82;;;18.40;99.90;;;;;;4976997;28;20034;-82
2023/08/04 08:13:46;;;;;;;1.40;0.30;;;18.40;99.90;;;;;;4985762;28;20030;-82
2023/08/04 08:16:14;;;;;;;1.38;0.40;;;18.50;99.90;;;;;;4982930;28;20030;-81
2023/08/04 08:18:41;;;;;;;0.40;0.35;;;18.50;99.90;;;;;;4991226;28;20057;-81
2023/08/04 08:21:07;;;;;;;1.52;0.40;;;18.60;99.90;;;;;;4987608;28;20034;-81
2023/08/04 08:23:34;;;;;;;3.30;0.57;;;18.60;99.90;;;;;;4965873;28;20049;-81
2023/08/04 08:25:59;;;;;;;2.45;0.50;;;18.60;99.90;;;;;;4968517;28;20031;-83
2023/08/04 08:28:25;;;;;;;2.08;0.60;;;18.60;99.90;;;;;;4979174;28;20435;-81
2023/08/04 08:30:51;;;;;;;2.55;0.60;;;18.70;99.90;;;;;;4979394;28;20060;-82
2023/08/04 08:33:17;;;;;;;0.98;0.65;;;18.80;99.90;;;;;;4995534;28;20387;-82
2023/08/04 08:35:42;;;;;;;1.80;0.50;;;18.80;99.90;;;;;;4971501;28;20043;-82
2023/08/04 08:38:08;;;;;;;1.65;0.50;;;18.80;99.90;;;;;;4968784;28;20034;-82
2023/08/04 08:40:33;;;;;;;1.27;0.50;;;18.90;99.90;;;;;;4984263;28;20452;-82
2023/08/04 08:42:59;;;;;;;0.98;0.52;;;18.80;99.90;;;;;;4986783;28;20153;-83
2023/08/04 08:45:28;;;;;;;0.95;0.38;;;18.80;99.90;;;;;;4976070;28;20089;-81
2023/08/04 08:47:55;;;;;;;0.50;0.35;;;18.80;99.90;;;;;;4985801;28;20125;-81
2023/08/04 08:50:26;;;;;;;3.03;0.43;;;18.90;99.90;;;;;;4993183;28;20022;-82
2023/08/04 08:53:06;;;;;;;2.10;0.43;;;19.00;99.90;;;;;;4990394;28;20030;-81
2023/08/04 08:55:33;;;;;;;1.33;0.65;;;19.10;99.90;;;;;;4978207;28;20026;-81
2023/08/04 08:58:01;;;;;;;0.75;0.38;;;19.30;99.90;;;;;;4969354;28;20027;-81
2023/08/04 09:00:28;;;;;;;1.08;0.38;;;19.30;99.90;;;;;;4983461;28;20030;-83
2023/08/04 09:02:54;;;;;;;0.55;0.30;;;19.40;99.90;;;;;;4989178;28;20026;-80
2023/08/04 09:05:21;;;;;;;1.80;0.30;;;19.40;99.90;;;;;;4988143;28;20023;-81
2023/08/04 09:07:49;;;;;;;1.10;0.40;;;19.30;99.90;;;;;;4972413;28;20056;-83
2023/08/04 09:10:14;;;;;;;0.73;0.30;;;19.40;99.90;;;;;;4990468;28;20089;-80
2023/08/04 09:12:44;;;;;;;1.33;0.70;;;19.40;99.90;;;;;;4986530;28;20423;-81
2023/08/04 09:15:10;;;;;;;0.63;0.25;;;19.50;99.90;;;;;;4995303;28;20035;-81
2023/08/04 09:17:38;;;;;;;0.65;0.28;;;19.60;99.90;;;;;;4984387;28;20118;-81
2023/08/04 09:20:06;;;;;;;3.70;0.60;;;19.70;99.90;;;;;;4965470;28;20486;-84
2023/08/04 09:22:35;;;;;;;1.05;0.35;;;19.90;99.90;;;;;;4973474;28;20055;-81
2023/08/04 09:25:05;;;;;;;1.63;0.25;;;20.00;99.90;;;;;;4985973;28;20037;-82
2023/08/04 09:27:41;;;;;;;0.45;0.30;;;20.10;99.90;;;;;;4981983;28;20368;-80
2023/08/04 09:30:09;;;;;;;0.20;0.20;;;20.20;99.90;;;;;;4979036;28;20034;-80
2023/08/04 09:33:01;;;;;;;1.20;0.20;;;20.20;99.90;;;;;;4986855;28;20459;-80
2023/08/04 09:35:27;;;;;;;;;;;20.20;99.90;;;;;;4982840;28;20031;-79
2023/08/04 09:37:55;;;;;;;3.63;0.30;;;20.30;99.90;;;;;;4984439;28;19933;-79
2023/08/04 09:40:21;;;;;;;0.55;0.40;;;20.30;99.90;;;;;;4992544;28;20225;-82
2023/08/04 09:42:48;;;;;;;0.70;0.40;;;20.40;99.90;;;;;;4991345;28;20356;-83
2023/08/04 09:45:15;;;;;;;1.23;0.50;;;20.30;99.90;;;;;;4993263;28;20042;-83
2023/08/04 09:47:49;;;;;;;1.15;0.80;;;20.20;99.90;;;;;;4992206;28;20022;-82
2023/08/04 09:50:16;;;;;;;7.93;5.22;;;20.00;99.90;;;;;;4974062;28;20039;-79
2023/08/04 09:52:42;;;;;;;2.90;2.10;;;19.90;99.90;;;;;;4994489;28;20033;-79
2023/08/04 09:55:10;;;;;;;2.33;1.42;;;20.00;99.90;;;;;;4994500;28;20030;-78
2023/08/04 09:57:37;;;;;;;2.22;1.40;;;19.90;99.90;;;;;;4989438;28;20062;-80
2023/08/04 10:00:08;;;;;;;7.47;3.05;;;19.90;99.90;;;;;;4993769;28;20040;-80
2023/08/04 10:02:34;;;;;;;2.83;1.50;;;20.00;99.90;;;;;;4985951;28;20113;-82
2023/08/04 10:05:02;;;;;;;1.88;0.90;;;20.00;99.90;;;;;;4972437;28;20534;-81
2023/08/04 10:07:31;;;;;;;3.38;1.45;;;20.00;99.90;;;;;;4993192;28;20408;-80
2023/08/04 10:09:58;;;;;;;1.40;1.23;;;20.00;99.90;;;;;;4993717;28;20064;-81
2023/08/04 10:12:24;;;;;;;3.13;1.55;;;20.00;99.90;;;;;;4993465;28;20034;-80
2023/08/04 10:14:50;;;;;;;2.70;1.30;;;19.90;99.90;;;;;;4977464;28;20050;-81
2023/08/04 10:17:18;;;;;;;3.95;1.80;;;19.90;99.90;;;;;;4989592;28;20073;-82
2023/08/04 10:19:44;;;;;;;10.05;2.20;;;19.80;99.90;;;;;;4962683;28;20034;-80
2023/08/04 10:22:11;;;;;;;1.67;1.17;;;19.80;99.90;;;;;;4976559;28;20026;-81
2023/08/04 10:24:40;;;;;;;1.15;1.05;;;19.80;99.90;;;;;;4993822;28;20033;-81
2023/08/04 10:27:19;;;;;;;1.77;1.10;;;19.90;99.90;;;;;;4975596;28;20056;-81
2023/08/04 10:29:45;;;;;;;2.17;1.35;;;19.80;99.90;;;;;;4985800;28;20023;-81
2023/08/04 10:32:11;;;;;;;6.95;1.60;;;19.80;99.90;;;;;;4969359;28;20376;-81
2023/08/04 10:34:41;;;;;;;3.72;1.60;;;19.80;99.90;;;;;;4977665;28;20033;-80
2023/08/04 10:37:17;;;;;;;2.28;1.33;;;19.70;99.90;;;;;;4973239;28;20030;-80
2023/08/04 10:39:57;;;;;;;2.65;1.45;;;19.60;99.90;;;;;;4957783;28;20069;-77
2023/08/04 10:42:26;;;;;;;1.88;1.50;;;19.50;99.90;;;;;;4974748;28;20141;-77
2023/08/04 10:45:06;;;;;;;2.88;1.60;;;19.50;99.90;;;;;;4960954;28;20050;-79
2023/08/04 10:47:40;;;;;;;1.63;1.33;;;19.60;99.90;;;;;;4987960;28;20022;-82
2023/08/04 10:50:07;;;;;;;1.45;1.27;;;19.60;99.90;;;;;;4984030;28;20030;-81
2023/08/04 10:52:34;;;;;;;1.63;1.30;;;19.60;99.90;;;;;;4962208;28;20046;-79
2023/08/04 10:55:01;;;;;;;2.63;1.40;;;19.60;99.90;;;;;;4977489;28;20479;-78
2023/08/04 10:57:29;;;;;;;3.00;2.00;;;19.70;99.90;;;;;;4986303;28;20022;-79
2023/08/04 10:59:55;;;;;;;4.32;3.50;;;19.70;99.90;;;;;;4982699;28;20116;-78
2023/08/04 11:02:22;;;;;;;2.60;1.70;;;19.80;99.90;;;;;;4976263;28;20038;-78
2023/08/04 11:04:49;;;;;;;3.20;1.88;;;19.80;99.90;;;;;;4982514;28;20066;-80
2023/08/04 11:07:15;;;;;;;3.45;1.80;;;19.90;99.90;;;;;;4993704;28;20026;-81
2023/08/04 11:09:42;;;;;;;2.92;1.73;;;19.80;99.90;;;;;;4992940;28;20034;-80
2023/08/04 11:12:17;;;;;;;1.95;1.42;;;19.70;99.90;;;;;;4983965;28;20078;-81
2023/08/04 11:14:44;;;;;;;2.30;1.60;;;19.70;99.90;;;;;;4989494;28;20026;-80
2023/08/04 11:17:14;;;;;;;2.28;1.58;;;19.80;99.90;;;;;;4992989;28;20053;-80
2023/08/04 11:19:43;;;;;;;3.53;1.88;;;20.00;99.90;;;;;;4976155;28;20022;-81
2023/08/04 11:22:12;;;;;;;2.75;1.90;;;20.00;99.90;;;;;;4992604;28;20487;-81
2023/08/04 11:24:37;;;;;;;3.08;1.80;;;20.00;99.90;;;;;;4989090;28;20049;-80
2023/08/04 11:27:05;;;;;;;2.03;1.83;;;20.10;99.90;;;;;;4959624;28;20034;-80
2023/08/04 11:29:31;;;;;;;2.03;1.60;;;20.10;99.90;;;;;;4957018;28;20034;-80
2023/08/04 11:31:56;;;;;;;2.15;1.45;;;20.30;99.90;;;;;;4956262;28;20455;-80
2023/08/04 11:34:22;;;;;;;2.92;1.80;;;20.40;99.90;;;;;;4973471;28;20034;-80
2023/08/04 11:36:49;;;;;;;2.60;1.98;;;20.30;99.90;;;;;;4975830;28;20431;-80
2023/08/04 11:39:14;;;;;;;3.78;2.05;;;20.30;99.90;;;;;;4990629;28;20038;-80
2023/08/04 11:41:42;;;;;;;2.33;1.80;;;20.20;99.90;;;;;;4968088;28;20372;-80
2023/08/04 11:44:08;;;;;;;3.33;2.00;;;20.20;99.90;;;;;;4967512;28;20050;-81
2023/08/04 11:46:34;;;;;;;4.07;1.73;;;20.30;99.90;;;;;;4957109;28;20031;-80
2023/08/04 11:49:05;;;;;;;2.70;1.73;;;20.40;99.90;;;;;;4971350;28;20034;-79
2023/08/04 11:51:30;;;;;;;1.92;1.65;;;20.40;99.90;;;;;;4971035;28;20031;-79
2023/08/04 11:53:56;;;;;;;1.92;1.73;;;20.40;99.90;;;;;;4975817;28;20035;-78
2023/08/04 11:56:22;;;;;;;1.85;1.67;;;20.50;99.90;;;;;;4978954;28;20062;-80
2023/08/04 11:58:50;;;;;;;3.42;1.88;;;20.70;99.90;;;;;;4960972;28;20505;-78
2023/08/04 12:01:28;;;;;;;2.65;2.00;;;20.80;99.90;;;;;;4984222;28;20038;-78
2023/08/04 12:03:54;;;;;;;2.35;1.80;;;21.00;99.90;;;;;;4981817;28;20035;-78
2023/08/04 12:06:22;;;;;;;2.85;1.80;;;21.10;99.90;;;;;;4977816;28;20041;-78
2023/08/04 12:08:56;;;;;;;1.90;1.63;;;21.20;99.90;;;;;;4976774;28;20039;-77
2023/08/04 12:11:24;;;;;;;2.72;1.85;;;21.30;99.90;;;;;;4973920;28;20023;-77
2023/08/04 12:13:50;;;;;;;1.83;1.58;;;21.40;99.90;;;;;;4980820;28;20101;-79
2023/08/04 12:16:17;;;;;;;2.35;1.75;;;21.50;99.90;;;;;;4991740;28;20062;-81
2023/08/04 12:18:44;;;;;;;2.70;1.60;;;21.60;99.90;;;;;;4988136;28;20125;-81
2023/08/04 12:21:14;;;;;;;3.78;2.25;;;21.60;99.90;;;;;;4973953;28;20522;-83
2023/08/04 12:23:46;;;;;;;2.75;1.80;;;21.70;99.90;;;;;;4989597;28;20026;-81
2023/08/04 12:26:12;;;;;;;2.70;1.95;;;21.70;99.90;;;;;;4989084;28;20046;-82
2023/08/04 12:28:37;;;;;;;3.45;1.92;;;21.40;99.90;;;;;;4980738;28;20036;-81
2023/08/04 12:31:03;;;;;;;3.97;2.28;;;21.00;99.90;;;;;;4973675;28;20030;-81
2023/08/04 12:33:29;;;;;;;3.95;2.47;;;20.80;99.90;;;;;;4975521;28;20060;-80
2023/08/04 12:35:54;;;;;;;3.22;2.22;;;20.60;99.90;;;;;;4972355;28;20031;-81
2023/08/04 12:38:20;;;;;;;3.20;2.40;;;20.60;99.90;;;;;;4989680;28;20081;-82
2023/08/04 12:40:47;;;;;;;4.20;2.10;;;20.50;99.90;;;;;;4985215;28;20031;-82
2023/08/04 12:43:12;;;;;;;2.75;2.40;;;20.60;99.90;;;;;;4978921;28;20045;-82
2023/08/04 12:45:39;;;;;;;4.72;2.40;;;20.60;99.90;;;;;;4981058;28;20039;-82